Time;durP1;ratioP1;P1;durP2;ratioP2;P2;SDS_P1;SDS_P2;PMS_P1;PMS_P2;Temp;Humidity;BMP_temperature;BMP_pressure;BME280_temperature;BME280_humidity;BME280_pressure;Samples;Min_cycle;Max_cycle;Signal;HPM_P1;HPM_P2
2024/01/19 00:01:16;;;;;;;18.10;8.90;;;;;;;-1.66;96.32;95459.63;108627;1273;22552;-79
2024/01/19 00:03:49;;;;;;;14.80;9.80;;;;;;;-1.71;96.00;95465.89;108626;1271;22517;-79
2024/01/19 00:06:20;;;;;;;15.00;10.40;;;;;;;-1.69;95.99;95465.38;108593;1273;22676;-79
2024/01/19 00:08:54;;;;;;;16.40;11.50;;;;;;;-1.64;96.28;95471.41;108647;1273;22575;-79
2024/01/19 00:11:25;;;;;;;17.70;11.50;;;;;;;-1.54;96.41;95478.67;108667;1273;22521;-79
2024/01/19 00:13:56;;;;;;;16.90;10.20;;;;;;;-1.52;96.40;95483.30;108651;1266;22511;-79
2024/01/19 00:16:30;;;;;;;14.60;10.50;;;;;;;-1.49;96.50;95481.16;108680;1273;22641;-79
2024/01/19 00:19:08;;;;;;;18.50;12.10;;;;;;;-1.54;96.02;95489.27;108647;1273;22519;-78
2024/01/19 00:21:46;;;;;;;16.60;10.50;;;;;;;-1.65;96.04;95503.61;108668;1273;23304;-78
2024/01/19 00:24:22;;;;;;;15.90;10.10;;;;;;;-1.68;96.20;95523.81;108634;1273;22564;-78
2024/01/19 00:26:54;;;;;;;15.00;9.60;;;;;;;-1.72;95.96;95524.91;108661;1273;22584;-78
2024/01/19 00:29:25;;;;;;;14.90;9.80;;;;;;;-1.72;96.06;95524.28;108664;1273;25271;-78
2024/01/19 00:31:56;;;;;;;14.00;8.70;;;;;;;-1.73;96.11;95515.95;108745;1269;22524;-78
2024/01/19 00:34:27;;;;;;;11.90;7.50;;;;;;;-1.70;96.42;95525.37;108656;1266;22563;-79
2024/01/19 00:37:00;;;;;;;10.20;7.10;;;;;;;-1.64;96.09;95542.98;108640;1273;22517;-78
2024/01/19 00:39:38;;;;;;;15.00;9.10;;;;;;;-1.58;96.30;95542.86;108637;1272;22533;-78
2024/01/19 00:42:09;;;;;;;12.50;8.10;;;;;;;-1.53;96.53;95546.94;108628;1271;22530;-78
2024/01/19 00:44:41;;;;;;;12.50;7.70;;;;;;;-1.48;96.29;95549.48;108636;1273;22546;-78
2024/01/19 00:47:16;;;;;;;13.30;9.20;;;;;;;-1.47;96.26;95557.77;108677;1273;25430;-78
2024/01/19 00:49:50;;;;;;;13.90;8.60;;;;;;;-1.49;96.24;95565.69;108643;1273;22650;-78
2024/01/19 00:52:21;;;;;;;11.40;6.90;;;;;;;-1.50;96.55;95568.27;108664;1270;22524;-78
2024/01/19 00:54:55;;;;;;;12.10;7.80;;;;;;;-1.56;96.15;95558.73;108712;1273;25300;-78
2024/01/19 00:57:29;;;;;;;11.50;7.40;;;;;;;-1.58;96.39;95561.33;108645;1273;24222;-78
2024/01/19 01:00:02;;;;;;;11.80;7.00;;;;;;;-1.61;96.22;95573.98;108627;1273;22711;-78
2024/01/19 01:02:33;;;;;;;13.80;8.40;;;;;;;-1.60;96.53;95585.04;108660;1273;23021;-78
2024/01/19 01:05:07;;;;;;;13.00;8.90;;;;;;;-1.60;96.31;95596.94;108672;1273;22570;-78
2024/01/19 01:07:39;;;;;;;12.90;7.20;;;;;;;-1.58;96.49;95594.42;108724;1273;24970;-78
2024/01/19 01:10:14;;;;;;;10.80;6.50;;;;;;;-1.64;96.19;95594.66;108662;1273;22521;-78
2024/01/19 01:12:46;;;;;;;12.60;8.20;;;;;;;-1.67;96.22;95595.16;108620;1271;22553;-78
2024/01/19 01:15:19;;;;;;;13.30;9.10;;;;;;;-1.75;96.04;95600.80;108617;1273;23116;-78
2024/01/19 01:17:51;;;;;;;13.50;8.80;;;;;;;-1.75;96.16;95605.95;108695;1271;24204;-78
2024/01/19 01:20:24;;;;;;;16.00;9.90;;;;;;;-1.72;96.61;95603.30;108637;1271;22599;-78
2024/01/19 01:22:55;;;;;;;13.60;9.80;;;;;;;-1.61;96.90;95604.80;108669;1273;25425;-78
2024/01/19 01:25:31;;;;;;;15.20;9.40;;;;;;;-1.57;96.90;95603.29;108637;1273;22757;-78
2024/01/19 01:28:02;;;;;;;15.90;9.90;;;;;;;-1.51;96.90;95603.27;108663;1273;23781;-79
2024/01/19 01:30:40;;;;;;;17.60;10.90;;;;;;;-1.49;96.84;95608.16;108601;1271;23253;-79
2024/01/19 01:33:13;;;;;;;16.70;11.50;;;;;;;-1.53;96.55;95612.19;108637;1264;22658;-79
2024/01/19 01:35:50;;;;;;;14.60;9.00;;;;;;;-1.55;96.45;95625.58;108669;1273;22524;-79
2024/01/19 01:38:23;;;;;;;16.30;10.40;;;;;;;-1.66;96.04;95634.27;108632;1271;25299;-78
2024/01/19 01:41:12;;;;;;;16.70;11.20;;;;;;;-1.78;95.58;95638.73;108624;1268;22533;-78
2024/01/19 01:43:43;;;;;;;14.90;9.50;;;;;;;-1.85;95.86;95637.40;108657;1273;23379;-79
2024/01/19 01:46:17;;;;;;;17.50;10.60;;;;;;;-1.91;95.98;95647.20;108628;1271;22930;-79
2024/01/19 01:48:48;;;;;;;12.10;7.70;;;;;;;-1.91;95.93;95649.38;108647;1273;23020;-79
2024/01/19 01:51:22;;;;;;;14.20;8.00;;;;;;;-1.92;95.98;95643.55;108636;1270;25465;-78
2024/01/19 01:53:53;;;;;;;13.70;8.70;;;;;;;-1.93;95.95;95649.40;108648;1268;25539;-78
2024/01/19 01:56:25;;;;;;;12.80;7.70;;;;;;;-1.91;95.73;95647.83;108611;1270;22544;-79
2024/01/19 01:58:56;;;;;;;11.50;6.50;;;;;;;-1.93;95.74;95658.23;108629;1252;22589;-78
2024/01/19 02:01:27;;;;;;;11.10;7.00;;;;;;;-1.92;95.53;95660.27;108613;1268;22527;-78
2024/01/19 02:04:00;;;;;;;9.90;6.70;;;;;;;-1.90;95.69;95662.75;108660;1273;22550;-78
2024/01/19 02:06:31;;;;;;;11.40;6.90;;;;;;;-1.88;95.63;95661.23;108642;1273;25299;-78
2024/01/19 02:09:08;;;;;;;12.30;7.70;;;;;;;-1.84;95.84;95661.23;108636;1267;22553;-79
2024/01/19 02:11:40;;;;;;;8.90;5.80;;;;;;;-1.79;95.51;95664.42;108599;1269;25432;-79
2024/01/19 02:14:15;;;;;;;12.50;6.70;;;;;;;-1.81;95.38;95665.33;108605;1273;22527;-79
2024/01/19 02:16:48;;;;;;;10.60;5.50;;;;;;;-1.81;95.06;95670.84;108617;1271;22564;-78
2024/01/19 02:19:24;;;;;;;9.20;4.80;;;;;;;-1.82;94.89;95675.38;108595;1270;24204;-79
2024/01/19 02:21:55;;;;;;;8.50;5.00;;;;;;;-1.85;94.84;95679.40;108625;1267;22543;-79
2024/01/19 02:24:28;;;;;;;10.60;5.80;;;;;;;-1.82;94.67;95682.24;108654;1273;22524;-79
2024/01/19 02:27:04;;;;;;;6.40;3.90;;;;;;;-1.84;94.59;95682.55;108625;1271;22591;-79
2024/01/19 02:29:35;;;;;;;8.70;5.30;;;;;;;-1.86;94.28;95684.45;108607;1273;22506;-79
2024/01/19 02:32:09;;;;;;;7.60;4.60;;;;;;;-1.88;94.25;95678.70;108604;1273;25416;-79
2024/01/19 02:34:46;;;;;;;11.30;7.00;;;;;;;-1.88;94.00;95668.14;108639;1265;24886;-79
2024/01/19 02:37:19;;;;;;;8.10;4.60;;;;;;;-1.88;94.08;95663.15;108642;1273;24305;-79
2024/01/19 02:39:50;;;;;;;7.40;4.70;;;;;;;-1.89;93.89;95662.00;108571;1273;23991;-79
2024/01/19 02:42:21;;;;;;;7.40;4.70;;;;;;;-1.89;93.77;95667.83;108629;1271;23862;-78
2024/01/19 02:44:57;;;;;;;10.90;5.40;;;;;;;-1.89;93.78;95667.52;108629;1273;24372;-78
2024/01/19 02:47:28;;;;;;;14.40;7.70;;;;;;;-1.87;93.89;95670.67;108662;1266;22978;-78
2024/01/19 02:50:02;;;;;;;9.40;6.30;;;;;;;-1.88;93.84;95681.61;108641;1271;24167;-78
2024/01/19 02:52:34;;;;;;;7.80;4.80;;;;;;;-1.85;93.67;95696.78;108669;1270;25415;-78
2024/01/19 02:55:08;;;;;;;7.00;4.00;;;;;;;-1.82;93.78;95701.98;108649;1273;22544;-78
2024/01/19 02:57:39;;;;;;;5.10;3.30;;;;;;;-1.80;93.57;95704.00;108674;1273;23921;-78
2024/01/19 03:00:17;;;;;;;11.10;5.80;;;;;;;-1.77;93.68;95705.92;108599;1273;22528;-78
2024/01/19 03:02:50;;;;;;;15.50;8.80;;;;;;;-1.82;93.41;95700.31;108641;1271;22525;-78
2024/01/19 03:05:24;;;;;;;13.70;8.50;;;;;;;-1.86;93.42;95703.11;108625;1273;22496;-78
2024/01/19 03:07:58;;;;;;;13.20;8.30;;;;;;;-1.85;93.65;95714.13;108626;1273;22943;-78
2024/01/19 03:10:33;;;;;;;12.60;5.90;;;;;;;-1.81;93.53;95734.70;108641;1271;22529;-78
2024/01/19 03:13:09;;;;;;;14.20;9.10;;;;;;;-1.89;93.19;95746.72;108658;1273;22541;-78
2024/01/19 03:15:43;;;;;;;15.90;10.10;;;;;;;-1.94;93.55;95744.05;108640;1273;22535;-78
2024/01/19 03:18:16;;;;;;;13.50;8.20;;;;;;;-1.96;93.73;95730.09;108606;1273;23876;-78
2024/01/19 03:20:47;;;;;;;11.10;7.70;;;;;;;-1.99;93.70;95734.61;108632;1272;23363;-78
2024/01/19 03:23:18;;;;;;;12.60;8.30;;;;;;;-2.06;93.43;95753.11;108630;1273;23984;-78
2024/01/19 03:25:49;;;;;;;14.80;8.90;;;;;;;-2.11;93.59;95766.50;108609;1273;23582;-78
2024/01/19 03:28:24;;;;;;;11.70;6.40;;;;;;;-2.10;93.72;95767.10;108674;1273;22575;-78
2024/01/19 03:31:00;;;;;;;19.60;9.50;;;;;;;-2.16;93.28;95769.64;108618;1267;22521;-77
2024/01/19 03:33:38;;;;;;;16.00;9.60;;;;;;;-2.20;93.48;95784.08;108618;1271;24255;-78
2024/01/19 03:36:10;;;;;;;15.60;8.80;;;;;;;-2.20;93.81;95785.75;108648;1273;26777;-78
2024/01/19 03:38:43;;;;;;;16.00;9.50;;;;;;;-2.19;93.71;95790.55;108606;1273;22530;-77
2024/01/19 03:41:16;;;;;;;11.80;6.90;;;;;;;-2.21;93.67;95792.04;108628;1268;25280;-78
2024/01/19 03:43:47;;;;;;;15.50;8.50;;;;;;;-2.25;93.53;95782.14;108638;1262;22575;-78
2024/01/19 03:46:20;;;;;;;12.30;6.70;;;;;;;-2.27;93.70;95771.82;108609;1273;24943;-78
2024/01/19 03:48:52;;;;;;;16.20;9.80;;;;;;;-2.34;93.68;95773.10;108620;1271;22721;-78
2024/01/19 03:51:25;;;;;;;14.50;8.70;;;;;;;-2.35;93.61;95774.63;108599;1274;23981;-78
2024/01/19 03:53:58;;;;;;;17.70;8.40;;;;;;;-2.37;93.61;95779.14;108597;1251;22535;-78
2024/01/19 03:56:35;;;;;;;20.40;9.40;;;;;;;-2.39;93.49;95784.30;108608;1274;23216;-78
2024/01/19 03:59:12;;;;;;;16.40;8.30;;;;;;;-2.41;93.32;95794.33;108580;1273;23807;-78
2024/01/19 04:01:43;;;;;;;16.50;9.90;;;;;;;-2.44;93.41;95795.67;108635;1273;25115;-78
2024/01/19 04:04:17;;;;;;;19.40;10.10;;;;;;;-2.43;93.41;95798.90;108699;1273;22635;-78
2024/01/19 04:06:48;;;;;;;19.30;12.00;;;;;;;-2.45;93.27;95802.17;108647;1273;23669;-78
2024/01/19 04:09:19;;;;;;;19.70;11.10;;;;;;;-2.47;93.48;95812.81;108711;1273;25392;-78
2024/01/19 04:11:51;;;;;;;13.70;9.00;;;;;;;-2.47;93.56;95811.77;108645;1273;22620;-78
2024/01/19 04:14:25;;;;;;;21.10;12.40;;;;;;;-2.49;93.28;95807.92;108676;1273;23980;-78
2024/01/19 04:16:57;;;;;;;19.40;10.50;;;;;;;-2.50;93.44;95809.73;108639;1271;22513;-78
2024/01/19 04:19:30;;;;;;;18.90;10.60;;;;;;;-2.51;93.52;95817.29;108693;1272;22701;-78
2024/01/19 04:22:04;;;;;;;16.90;8.30;;;;;;;-2.51;93.58;95821.48;108665;1273;22528;-78
2024/01/19 04:24:38;;;;;;;22.40;13.80;;;;;;;-2.50;93.53;95828.82;108670;1273;22533;-78
2024/01/19 04:27:09;;;;;;;23.10;13.10;;;;;;;-2.49;93.61;95834.15;108827;1263;24327;-78
2024/01/19 04:29:42;;;;;;;22.10;12.30;;;;;;;-2.48;93.63;95823.64;108835;1266;22946;-78
2024/01/19 04:32:16;;;;;;;22.50;13.40;;;;;;;-2.48;93.61;95821.65;108882;1273;22531;-77
2024/01/19 04:34:48;;;;;;;22.90;13.00;;;;;;;-2.48;93.75;95816.58;108624;1266;22627;-77
2024/01/19 04:37:21;;;;;;;21.00;12.20;;;;;;;-2.49;93.47;95822.57;108680;1273;25434;-78
2024/01/19 04:39:54;;;;;;;23.20;14.00;;;;;;;-2.52;93.45;95842.58;108603;1273;22510;-78
2024/01/19 04:42:25;;;;;;;19.20;10.90;;;;;;;-2.52;93.31;95856.11;108681;1273;23338;-77
2024/01/19 04:44:57;;;;;;;22.80;12.90;;;;;;;-2.54;93.32;95870.13;108611;1266;24237;-78
2024/01/19 04:47:31;;;;;;;22.80;14.00;;;;;;;-2.55;93.30;95869.13;108665;1273;22552;-78
2024/01/19 04:50:02;;;;;;;23.40;15.00;;;;;;;-2.55;93.44;95874.99;108664;1273;24215;-78
2024/01/19 04:52:35;;;;;;;24.40;13.80;;;;;;;-2.54;93.62;95876.23;108643;1273;22527;-78
2024/01/19 04:55:12;;;;;;;20.40;11.10;;;;;;;-2.56;93.46;95884.46;108639;1273;25138;-78
2024/01/19 04:57:49;;;;;;;25.00;14.40;;;;;;;-2.59;93.60;95891.17;108625;1273;23773;-78
2024/01/19 05:00:22;;;;;;;23.40;14.50;;;;;;;-2.62;93.45;95885.09;108669;1273;25441;-78
2024/01/19 05:02:55;;;;;;;25.20;13.30;;;;;;;-2.62;93.43;95890.05;108654;1273;22532;-78
2024/01/19 05:05:26;;;;;;;21.50;12.90;;;;;;;-2.64;93.41;95898.77;108679;1267;24185;-78
2024/01/19 05:07:59;;;;;;;26.20;15.00;;;;;;;-2.65;93.53;95901.12;108634;1273;22562;-77
2024/01/19 05:10:34;;;;;;;19.40;9.00;;;;;;;-2.64;93.67;95898.40;108609;1274;22570;-78
2024/01/19 05:13:07;;;;;;;24.20;14.80;;;;;;;-2.66;93.53;95904.80;108616;1273;25269;-78
2024/01/19 05:15:39;;;;;;;23.90;13.30;;;;;;;-2.69;93.38;95907.77;108614;1273;22523;-77
2024/01/19 05:18:13;;;;;;;26.30;13.60;;;;;;;-2.71;93.61;95920.23;108610;1270;22559;-77
2024/01/19 05:20:49;;;;;;;22.20;10.60;;;;;;;-2.70;93.67;95922.81;108561;1268;25428;-78
2024/01/19 05:23:22;;;;;;;22.20;13.50;;;;;;;-2.71;93.52;95927.73;108637;1271;22572;-77
2024/01/19 05:25:57;;;;;;;25.90;15.10;;;;;;;-2.72;93.57;95935.17;108618;1275;24199;-77
2024/01/19 05:28:32;;;;;;;24.60;13.90;;;;;;;-2.73;93.58;95942.32;108615;1274;25452;-77
2024/01/19 05:31:06;;;;;;;25.10;13.60;;;;;;;-2.69;93.90;95957.70;108621;1255;23940;-77
2024/01/19 05:33:44;;;;;;;22.00;11.50;;;;;;;-2.69;93.76;95959.50;108637;1273;24218;-78
2024/01/19 05:36:20;;;;;;;23.80;14.00;;;;;;;-2.73;93.51;95967.63;108622;1273;25430;-77
2024/01/19 05:38:53;;;;;;;22.30;14.80;;;;;;;-2.73;93.79;95982.36;108591;1273;22525;-78
2024/01/19 05:41:27;;;;;;;25.30;14.70;;;;;;;-2.71;93.76;95988.08;108605;1273;22526;-78
2024/01/19 05:43:58;;;;;;;18.80;12.00;;;;;;;-2.68;93.85;95990.61;108636;1273;22576;-78
2024/01/19 05:46:31;;;;;;;25.30;16.80;;;;;;;-2.72;93.61;95992.11;108603;1264;23288;-78
2024/01/19 05:49:07;;;;;;;26.20;15.20;;;;;;;-2.74;93.64;95987.05;108617;1273;22523;-77
2024/01/19 05:51:43;;;;;;;25.80;14.10;;;;;;;-2.74;93.61;95982.84;108606;1273;22600;-78
2024/01/19 05:54:14;;;;;;;20.60;11.80;;;;;;;-2.81;93.35;95987.91;108615;1273;22521;-77
2024/01/19 05:56:48;;;;;;;22.30;13.30;;;;;;;-2.88;93.10;95981.93;108650;1266;22549;-79
2024/01/19 05:59:21;;;;;;;21.20;12.50;;;;;;;-2.92;93.00;95995.33;108625;1273;25534;-78
2024/01/19 06:01:55;;;;;;;18.10;10.20;;;;;;;-2.94;92.82;96005.39;108616;1273;24294;-79
2024/01/19 06:04:28;;;;;;;18.70;11.30;;;;;;;-2.98;92.80;96015.81;108649;1273;22526;-78
2024/01/19 06:07:00;;;;;;;18.60;9.40;;;;;;;-3.01;92.61;96018.58;108601;1263;22549;-78
2024/01/19 06:09:31;;;;;;;19.40;12.10;;;;;;;-3.07;92.60;96018.06;108579;1271;27029;-78
2024/01/19 06:12:08;;;;;;;18.10;10.30;;;;;;;-3.09;92.50;96029.39;108648;1273;23255;-78
2024/01/19 06:14:42;;;;;;;20.30;12.80;;;;;;;-3.08;92.45;96038.27;108627;1273;24321;-78
2024/01/19 06:17:17;;;;;;;20.90;12.50;;;;;;;-3.10;92.32;96044.70;108626;1270;25485;-78
2024/01/19 06:19:50;;;;;;;22.50;13.20;;;;;;;-3.09;92.46;96051.89;108617;1274;22531;-78
2024/01/19 06:22:24;;;;;;;18.50;10.80;;;;;;;-3.07;92.26;96061.83;108629;1274;22876;-78
2024/01/19 06:24:55;;;;;;;25.40;12.20;;;;;;;-3.14;92.08;96067.58;108640;1274;22603;-78
2024/01/19 06:27:27;;;;;;;22.00;12.30;;;;;;;-3.17;91.95;96073.50;108602;1273;27137;-78
2024/01/19 06:29:58;;;;;;;21.40;12.50;;;;;;;-3.19;92.04;96070.32;108622;1273;22646;-78
2024/01/19 06:32:30;;;;;;;23.70;13.50;;;;;;;-3.18;92.20;96068.60;108620;1273;22750;-78
2024/01/19 06:35:06;;;;;;;20.40;10.60;;;;;;;-3.15;92.23;96063.64;108628;1271;22530;-79
2024/01/19 06:37:40;;;;;;;22.90;12.70;;;;;;;-3.16;92.10;96064.72;108600;1273;27687;-78
2024/01/19 06:40:14;;;;;;;21.70;13.40;;;;;;;-3.18;92.01;96069.99;108594;1273;25073;-79
2024/01/19 06:42:46;;;;;;;22.80;13.50;;;;;;;-3.17;92.13;96072.30;108612;1274;22580;-78
2024/01/19 06:45:19;;;;;;;20.30;14.00;;;;;;;-3.14;92.09;96072.09;108621;1273;25264;-78
2024/01/19 06:47:51;;;;;;;21.10;12.70;;;;;;;-3.10;92.28;96078.89;108589;1273;22520;-79
2024/01/19 06:50:24;;;;;;;21.80;12.80;;;;;;;-3.08;92.24;96081.00;108586;1268;25248;-79
2024/01/19 06:53:00;;;;;;;22.70;13.80;;;;;;;-3.15;92.03;96072.69;108633;1274;24214;-78
2024/01/19 06:55:33;;;;;;;20.60;12.60;;;;;;;-3.13;92.03;96076.46;108604;1271;22580;-78
2024/01/19 06:58:05;;;;;;;22.00;13.20;;;;;;;-3.07;92.31;96082.36;108607;1273;22927;-79
2024/01/19 07:00:40;;;;;;;23.20;13.70;;;;;;;-3.05;92.09;96085.90;108556;1267;24315;-78
2024/01/19 07:03:11;;;;;;;23.80;13.70;;;;;;;-3.03;92.25;96078.70;108615;1273;23500;-78
2024/01/19 07:05:43;;;;;;;24.40;13.70;;;;;;;-2.97;92.18;96076.41;108620;1273;22520;-79
2024/01/19 07:08:17;;;;;;;19.60;12.10;;;;;;;-2.99;92.12;96074.02;108628;1266;22544;-79
2024/01/19 07:10:52;;;;;;;19.60;11.70;;;;;;;-3.05;91.90;96074.10;108618;1273;23368;-79
2024/01/19 07:13:23;;;;;;;18.30;10.70;;;;;;;-3.09;91.83;96080.73;108607;1274;22520;-79
2024/01/19 07:15:56;;;;;;;16.30;8.50;;;;;;;-3.12;91.73;96077.10;108567;1274;25423;-79
2024/01/19 07:18:27;;;;;;;18.40;11.10;;;;;;;-3.15;91.65;96080.75;108544;1274;22523;-78
2024/01/19 07:21:09;;;;;;;16.60;10.30;;;;;;;-3.11;91.83;96076.22;108612;1273;22529;-78
2024/01/19 07:23:41;;;;;;;20.00;11.00;;;;;;;-3.10;91.65;96077.53;108595;1273;24250;-78
2024/01/19 07:26:12;;;;;;;19.20;10.50;;;;;;;-3.08;91.82;96088.50;108680;1274;22521;-78
2024/01/19 07:28:45;;;;;;;17.40;10.10;;;;;;;-3.06;91.68;96090.81;108622;1273;24877;-79
2024/01/19 07:31:18;;;;;;;17.50;10.60;;;;;;;-3.02;91.60;96097.27;108605;1269;23919;-79
2024/01/19 07:33:54;;;;;;;17.90;9.60;;;;;;;-3.01;91.75;96093.70;108642;1273;22592;-79
2024/01/19 07:36:26;;;;;;;21.20;11.80;;;;;;;-3.02;91.62;96085.17;108631;1274;22537;-79
2024/01/19 07:38:57;;;;;;;18.20;10.90;;;;;;;-3.03;91.52;96095.46;108594;1274;22538;-79
2024/01/19 07:41:28;;;;;;;20.80;10.80;;;;;;;-3.04;91.47;96095.02;108615;1267;22593;-79
2024/01/19 07:44:00;;;;;;;17.30;11.50;;;;;;;-3.09;91.47;96087.86;108618;1274;22520;-79
2024/01/19 07:46:32;;;;;;;20.20;11.60;;;;;;;-3.07;91.73;96088.77;108644;1270;25410;-79
2024/01/19 07:49:03;;;;;;;18.00;11.20;;;;;;;-3.08;91.55;96086.08;108609;1273;23871;-79
2024/01/19 07:51:36;;;;;;;19.00;10.90;;;;;;;-3.06;91.61;96083.96;108578;1273;22531;-79
2024/01/19 07:54:08;;;;;;;15.20;9.60;;;;;;;-3.07;91.79;96088.39;108665;1267;22550;-79
2024/01/19 07:56:45;;;;;;;16.40;10.50;;;;;;;-3.00;91.97;96098.84;108627;1273;23280;-79
2024/01/19 07:59:17;;;;;;;20.10;12.10;;;;;;;-2.89;92.20;96096.30;108643;1273;24257;-79
2024/01/19 08:01:51;;;;;;;19.30;11.90;;;;;;;-2.84;92.11;96097.66;108578;1267;25284;-79
2024/01/19 08:04:22;;;;;;;21.30;11.80;;;;;;;-2.82;92.08;96100.47;108590;1274;23192;-78
2024/01/19 08:06:58;;;;;;;20.70;12.90;;;;;;;-2.80;92.04;96118.99;108607;1272;26566;-79
2024/01/19 08:09:38;;;;;;;17.50;10.90;;;;;;;-2.77;92.09;96131.20;108614;1273;22639;-79
2024/01/19 08:12:09;;;;;;;20.50;12.20;;;;;;;-2.72;92.13;96136.27;108593;1267;22637;-79
2024/01/19 08:14:42;;;;;;;20.70;12.40;;;;;;;-2.71;92.28;96142.49;108618;1274;22533;-78
2024/01/19 08:17:16;;;;;;;20.90;12.50;;;;;;;-2.68;92.01;96136.96;108566;1267;22519;-79
2024/01/19 08:19:47;;;;;;;17.50;11.00;;;;;;;-2.75;91.77;96141.33;108607;1274;22537;-79
2024/01/19 08:22:17;;;;;;;20.60;12.40;;;;;;;-2.82;91.58;96138.35;108575;1274;23677;-79
2024/01/19 08:24:49;;;;;;;18.50;11.40;;;;;;;-2.93;91.48;96141.86;108584;1273;22565;-78
2024/01/19 08:27:20;;;;;;;16.70;10.70;;;;;;;-3.05;91.50;96151.88;108613;1273;26524;-78
2024/01/19 08:29:52;;;;;;;18.50;10.80;;;;;;;-3.06;91.68;96149.61;108594;1273;23170;-79
2024/01/19 08:32:24;;;;;;;19.80;11.30;;;;;;;-3.00;91.90;96149.81;108599;1274;25954;-79
2024/01/19 08:35:00;;;;;;;17.20;10.40;;;;;;;-3.00;91.83;96147.30;108609;1274;22527;-79
2024/01/19 08:37:34;;;;;;;16.50;10.00;;;;;;;-2.93;91.97;96158.19;108599;1273;22507;-79
2024/01/19 08:40:09;;;;;;;15.10;9.50;;;;;;;-2.80;92.36;96171.99;108577;1274;22570;-79
2024/01/19 08:42:45;;;;;;;15.00;8.60;;;;;;;-2.75;91.93;96190.98;108718;1263;23284;-79
2024/01/19 08:45:16;;;;;;;19.20;9.80;;;;;;;-2.81;91.44;96199.77;108539;1267;22513;-79
2024/01/19 08:47:48;;;;;;;17.80;9.20;;;;;;;-2.92;91.36;96212.41;108605;1267;22847;-80
2024/01/19 08:50:22;;;;;;;17.20;9.40;;;;;;;-2.95;91.43;96215.60;108549;1268;24201;-79
2024/01/19 08:52:55;;;;;;;15.30;9.30;;;;;;;-2.91;91.42;96224.77;108594;1272;25442;-80
2024/01/19 08:55:29;;;;;;;17.30;10.70;;;;;;;-2.82;91.76;96234.02;108594;1251;22527;-78
2024/01/19 08:58:02;;;;;;;13.60;7.90;;;;;;;-2.85;91.49;96237.23;108607;1251;22546;-78
2024/01/19 09:00:40;;;;;;;17.80;10.30;;;;;;;-2.87;91.39;96253.13;108608;1274;25604;-79
2024/01/19 09:03:11;;;;;;;17.00;9.50;;;;;;;-2.87;91.21;96264.83;108863;1273;22570;-79
2024/01/19 09:05:45;;;;;;;12.90;7.90;;;;;;;-2.97;90.90;96264.08;108830;1274;22602;-80
2024/01/19 09:08:18;;;;;;;14.80;8.50;;;;;;;-3.13;90.47;96270.99;108779;1267;22521;-80
2024/01/19 09:10:49;;;;;;;13.60;8.50;;;;;;;-3.13;90.70;96274.17;108596;1273;23839;-80
2024/01/19 09:13:20;;;;;;;13.70;8.50;;;;;;;-3.06;90.56;96274.31;108617;1267;25239;-81
2024/01/19 09:15:53;;;;;;;17.70;8.50;;;;;;;-3.02;90.41;96277.58;108563;1274;26119;-80
2024/01/19 09:18:25;;;;;;;15.80;9.10;;;;;;;-3.02;90.26;96289.45;108608;1256;22596;-80
2024/01/19 09:20:58;;;;;;;14.20;7.80;;;;;;;-2.90;90.28;96290.53;108565;1273;22549;-81
2024/01/19 09:23:29;;;;;;;14.50;8.50;;;;;;;-2.92;90.00;96295.40;108603;1273;22555;-80
2024/01/19 09:26:00;;;;;;;15.00;10.10;;;;;;;-2.94;89.95;96299.00;108603;1267;25416;-79
2024/01/19 09:28:32;;;;;;;15.50;9.00;;;;;;;-2.91;89.89;96295.80;108728;1273;22538;-80
2024/01/19 09:31:07;;;;;;;17.70;9.50;;;;;;;-2.88;89.65;96295.11;108602;1273;22795;-79
2024/01/19 09:33:40;;;;;;;17.50;9.80;;;;;;;-2.94;89.44;96292.73;108632;1274;23391;-79
2024/01/19 09:36:14;;;;;;;18.10;9.70;;;;;;;-2.93;89.57;96288.98;108621;1270;25010;-79
2024/01/19 09:38:48;;;;;;;15.30;9.20;;;;;;;-2.89;89.56;96286.61;108605;1273;22536;-79
2024/01/19 09:41:32;;;;;;;17.40;10.10;;;;;;;-2.88;89.32;96287.45;108606;1272;22531;-80
2024/01/19 09:44:10;;;;;;;14.30;9.20;;;;;;;-2.83;89.33;96301.16;108628;1273;24037;-80
2024/01/19 09:47:05;;;;;;;14.80;7.50;;;;;;;-2.81;89.11;96310.04;108566;1273;23397;-80
2024/01/19 09:49:50;;;;;;;13.70;7.30;;;;;;;-2.72;88.92;96312.17;108608;1270;24267;-79
2024/01/19 09:52:38;;;;;;;17.00;9.60;;;;;;;-2.65;89.09;96323.50;108728;1270;26523;-79
2024/01/19 09:55:12;;;;;;;14.60;8.80;;;;;;;-2.54;89.29;96323.77;108617;1267;23299;-79
2024/01/19 09:57:48;;;;;;;14.80;7.90;;;;;;;-2.54;88.88;96324.48;108615;1273;25293;-79
2024/01/19 10:00:24;;;;;;;12.50;9.10;;;;;;;-2.59;88.97;96328.95;108632;1264;23460;-79
2024/01/19 10:02:56;;;;;;;13.30;8.70;;;;;;;-2.49;89.22;96329.55;108608;1273;22616;-78
2024/01/19 10:05:27;;;;;;;14.40;8.30;;;;;;;-2.50;88.78;96337.13;108590;1273;25474;-80
2024/01/19 10:07:59;;;;;;;16.30;9.50;;;;;;;-2.53;88.74;96338.58;108574;1273;24215;-80
2024/01/19 10:10:30;;;;;;;10.80;5.80;;;;;;;-2.64;88.50;96336.96;108621;1273;22689;-80
2024/01/19 10:13:03;;;;;;;15.90;8.20;;;;;;;-2.72;88.33;96339.31;108622;1273;22587;-79
2024/01/19 10:15:34;;;;;;;16.80;8.70;;;;;;;-2.71;88.60;96332.05;108630;1254;22664;-80
2024/01/19 10:18:19;;;;;;;16.00;8.70;;;;;;;-2.64;88.54;96325.30;108590;1273;24168;-80
2024/01/19 10:20:52;;;;;;;16.10;9.80;;;;;;;-2.55;88.77;96328.79;108627;1270;24283;-80
2024/01/19 10:23:27;;;;;;;15.90;9.20;;;;;;;-2.44;88.66;96334.96;108669;1273;23028;-80
2024/01/19 10:26:14;;;;;;;13.10;7.90;;;;;;;-2.38;88.32;96332.71;108615;1273;22524;-80
2024/01/19 10:28:50;;;;;;;13.80;7.90;;;;;;;-2.31;88.32;96338.25;108627;1273;22590;-80
2024/01/19 10:31:26;;;;;;;14.90;9.00;;;;;;;-2.31;88.07;96340.44;108542;1270;124273;-80
2024/01/19 10:34:02;;;;;;;15.40;9.30;;;;;;;-2.27;87.99;96345.46;108653;1270;22527;-80
2024/01/19 10:36:45;;;;;;;15.30;9.00;;;;;;;-2.20;88.15;96346.36;108603;1267;22533;-80
2024/01/19 10:39:25;;;;;;;16.50;9.40;;;;;;;-2.07;88.00;96351.41;108607;1273;23407;-80
2024/01/19 10:42:08;;;;;;;12.80;8.10;;;;;;;-2.01;88.03;96355.73;108686;1273;22647;-80
2024/01/19 10:44:45;;;;;;;15.70;9.00;;;;;;;-2.00;87.44;96355.84;108575;1272;22530;-80
2024/01/19 10:47:18;;;;;;;13.40;7.70;;;;;;;-2.04;87.30;96352.11;108635;1267;22523;-80
2024/01/19 10:50:04;;;;;;;9.70;5.50;;;;;;;-2.10;86.79;96357.77;108602;1251;22565;-80
2024/01/19 10:52:36;;;;;;;13.00;7.80;;;;;;;-2.33;86.32;96357.59;108615;1267;24637;-79
2024/01/19 10:55:09;;;;;;;13.10;8.00;;;;;;;-2.36;86.62;96357.23;108577;1267;22551;-80
2024/01/19 10:57:51;;;;;;;14.30;8.60;;;;;;;-2.30;86.53;96353.58;108644;1267;22722;-80
2024/01/19 11:00:32;;;;;;;26.90;12.00;;;;;;;-2.33;85.85;96350.84;108574;1267;25444;-80
2024/01/19 11:03:06;;;;;;;14.90;7.50;;;;;;;-2.34;85.60;96350.92;108602;1273;24352;-80
2024/01/19 11:05:37;;;;;;;16.90;9.30;;;;;;;-2.31;85.25;96344.91;108648;1273;22536;-80
2024/01/19 11:08:09;;;;;;;13.80;7.80;;;;;;;-2.32;85.01;96347.91;108608;1273;22574;-80
2024/01/19 11:10:48;;;;;;;14.30;8.20;;;;;;;-2.26;84.83;96347.41;108594;1267;22571;-80
2024/01/19 11:13:22;;;;;;;13.00;7.20;;;;;;;-2.29;84.63;96345.38;108605;1263;22843;-79
2024/01/19 11:15:57;;;;;;;11.50;5.80;;;;;;;-2.27;84.34;96355.08;108618;1273;23286;-80
2024/01/19 11:18:29;;;;;;;15.10;8.00;;;;;;;-2.31;83.44;96365.24;108588;1267;22562;-80
2024/01/19 11:21:03;;;;;;;13.10;5.00;;;;;;;-2.32;83.42;96372.48;108604;1273;23802;-80
2024/01/19 11:23:37;;;;;;;17.10;9.90;;;;;;;-2.32;82.73;96372.67;108644;1273;22576;-80
2024/01/19 11:26:17;;;;;;;18.50;7.20;;;;;;;-2.26;83.04;96377.30;108849;1273;22591;-80
2024/01/19 11:28:52;;;;;;;;;;;;;;;-2.25;82.66;96379.36;108651;1267;25398;-79
2024/01/19 11:31:29;;;;;;;21.40;10.10;;;;;;;-2.28;82.39;96376.37;108580;1273;22647;-80
2024/01/19 11:34:00;;;;;;;23.70;9.70;;;;;;;-2.25;82.61;96376.38;108642;1273;22545;-80
2024/01/19 11:36:51;;;;;;;12.40;7.00;;;;;;;-2.19;82.28;96382.16;108605;1273;22632;-81
2024/01/19 11:39:45;;;;;;;13.60;7.30;;;;;;;-2.21;81.57;96394.59;108620;1273;26590;-81
2024/01/19 11:42:51;;;;;;;17.60;8.80;;;;;;;-2.23;81.52;96394.91;108605;1267;22520;-80
2024/01/19 11:48:43;;;;;;;17.00;8.90;;;;;;;-2.25;80.64;96379.28;105144;1305;545792;-80